createdAt,value
2022-10-11T00:02:08.307Z,98428.78
2022-10-11T00:04:37.653Z,98424.00
2022-10-11T00:07:05.354Z,98428.16
2022-10-11T00:09:33.244Z,98427.97
2022-10-11T00:12:01.432Z,98430.69
2022-10-11T00:14:29.532Z,98435.03
2022-10-11T00:16:57.541Z,98432.31
2022-10-11T00:19:25.501Z,98433.25
2022-10-11T00:21:54.582Z,98436.75
2022-10-11T00:24:22.666Z,98434.69
2022-10-11T00:26:50.652Z,98442.06
2022-10-11T00:29:18.428Z,98438.22
2022-10-11T00:31:46.136Z,98442.53
2022-10-11T00:34:15.583Z,98440.13
2022-10-11T00:36:43.401Z,98437.69
2022-10-11T00:39:14.422Z,98430.38
2022-10-11T00:41:42.984Z,98436.91
2022-10-11T00:44:17.302Z,98442.84
2022-10-11T00:46:54.987Z,98444.59
2022-10-11T00:49:33.693Z,98441.25
2022-10-11T00:52:04.551Z,98448.59
2022-10-11T00:54:37.420Z,98451.78
2022-10-11T00:57:10.508Z,98445.41
2022-10-11T00:59:42.547Z,98447.63
2022-10-11T01:02:11.304Z,98439.66
2022-10-11T01:04:39.350Z,98447.03
2022-10-11T01:07:07.190Z,98445.44
2022-10-11T01:09:37.074Z,98446.53
2022-10-11T01:12:08.069Z,98446.72
2022-10-11T01:15:05.279Z,98444.94
2022-10-11T01:17:41.032Z,98445.75
2022-10-11T01:20:32.565Z,98438.25
2022-10-11T01:23:19.084Z,98440.31
2022-10-11T01:26:08.141Z,98446.72
2022-10-11T01:28:50.189Z,98439.03
2022-10-11T01:31:26.233Z,98440.00
2022-10-11T01:33:58.017Z,98436.31
2022-10-11T01:36:34.109Z,98441.09
2022-10-11T01:39:06.158Z,98444.31
2022-10-11T01:41:39.913Z,98446.06
2022-10-11T01:44:10.241Z,98446.22
2022-10-11T01:46:39.959Z,98450.84
2022-10-11T01:49:08.513Z,98455.78
2022-10-11T01:51:42.983Z,98447.59
2022-10-11T01:55:07.509Z,98448.69
2022-10-11T01:57:49.059Z,98456.81
2022-10-11T02:00:20.521Z,98445.47
2022-10-11T02:03:06.730Z,98458.53
2022-10-11T02:05:40.173Z,98457.72
2022-10-11T02:08:17.323Z,98463.31
2022-10-11T02:10:50.703Z,98461.22
2022-10-11T02:13:25.018Z,98460.53
2022-10-11T02:15:54.892Z,98470.78
2022-10-11T02:18:28.411Z,98467.59
2022-10-11T02:21:00.673Z,98471.44
2022-10-11T02:23:34.213Z,98463.75
2022-10-11T02:26:06.434Z,98461.31
2022-10-11T02:28:36.625Z,98466.47
2022-10-11T02:31:07.925Z,98459.44
2022-10-11T02:33:42.678Z,98462.28
2022-10-11T02:36:18.438Z,98464.81
2022-10-11T02:38:51.529Z,98458.72
2022-10-11T02:41:24.596Z,98468.63
2022-10-11T02:43:58.382Z,98467.31
2022-10-11T02:46:30.370Z,98463.94
2022-10-11T02:49:00.924Z,98469.19
2022-10-11T02:51:31.509Z,98466.13
2022-10-11T02:53:59.358Z,98467.53
2022-10-11T02:56:27.801Z,98469.59
2022-10-11T02:58:55.828Z,98473.25
2022-10-11T03:01:23.761Z,98473.75
2022-10-11T03:03:51.669Z,98478.84
2022-10-11T03:06:21.888Z,98483.16
2022-10-11T03:08:49.729Z,98482.84
2022-10-11T03:11:17.424Z,98478.84
2022-10-11T03:13:45.641Z,98487.50
2022-10-11T03:16:14.021Z,98484.44
2022-10-11T03:18:41.983Z,98486.69
2022-10-11T03:21:10.477Z,98484.28
2022-10-11T03:23:40.004Z,98479.97
2022-10-11T03:26:08.566Z,98484.28
2022-10-11T03:28:37.107Z,98494.19
2022-10-11T03:31:05.000Z,98485.69
2022-10-11T03:33:32.769Z,98496.72
2022-10-11T03:36:01.386Z,98486.16
2022-10-11T03:38:29.635Z,98488.69
2022-10-11T03:40:58.800Z,98494.97
2022-10-11T03:43:26.901Z,98494.63
2022-10-11T03:45:54.705Z,98494.97
2022-10-11T03:48:22.491Z,98490.63
2022-10-11T03:50:50.510Z,98493.88
2022-10-11T03:53:18.266Z,98501.44
2022-10-11T03:55:46.033Z,98504.69
2022-10-11T03:58:15.501Z,98498.94
2022-10-11T04:00:43.244Z,98503.94
2022-10-11T04:03:10.927Z,98500.06
2022-10-11T04:05:39.136Z,98500.06
2022-10-11T04:08:11.796Z,98502.63
2022-10-11T04:10:40.950Z,98497.31
2022-10-11T04:13:10.869Z,98495.53
2022-10-11T04:15:41.251Z,98497.25
2022-10-11T04:18:10.002Z,98505.25
2022-10-11T04:20:37.786Z,98504.56
2022-10-11T04:23:05.517Z,98507.97
2022-10-11T04:25:33.710Z,98518.19
2022-10-11T04:28:01.480Z,98510.63
2022-10-11T04:30:29.334Z,98513.69
2022-10-11T04:32:59.183Z,98508.69
2022-10-11T04:35:27.004Z,98518.19
2022-10-11T04:37:54.681Z,98519.28
2022-10-11T04:40:22.840Z,98514.63
2022-10-11T04:42:53.578Z,98516.22
2022-10-11T04:45:21.621Z,98525.72
2022-10-11T04:47:50.125Z,98523.13
2022-10-11T04:50:19.419Z,98525.84
2022-10-11T04:52:47.197Z,98520.91
2022-10-11T04:55:15.326Z,98526.56
2022-10-11T04:57:43.225Z,98520.81
2022-10-11T05:00:12.417Z,98525.63
2022-10-11T05:02:40.434Z,98529.59
2022-10-11T05:05:08.985Z,98531.22
2022-10-11T05:07:38.173Z,98535.84
2022-10-11T05:10:07.279Z,98539.53
2022-10-11T05:12:34.981Z,98542.06
2022-10-11T05:15:03.005Z,98544.91
2022-10-11T05:17:31.076Z,98551.63
2022-10-11T05:19:59.025Z,98553.88
2022-10-11T05:22:26.958Z,98556.78
2022-10-11T05:24:56.357Z,98560.59
2022-10-11T05:27:24.076Z,98562.34
2022-10-11T05:29:52.273Z,98567.78
2022-10-11T05:32:20.369Z,98567.13
2022-10-11T05:34:48.182Z,98581.22
2022-10-11T05:37:16.041Z,98581.59
2022-10-11T05:39:43.844Z,98575.50
2022-10-11T05:42:12.892Z,98589.44
2022-10-11T05:44:40.867Z,98585.59
2022-10-11T05:47:08.878Z,98589.44
2022-10-11T05:49:36.739Z,98587.38
2022-10-11T05:52:06.576Z,98597.00
2022-10-11T05:54:34.546Z,98594.16
2022-10-11T05:57:02.328Z,98611.09
2022-10-11T05:59:31.513Z,98598.88
2022-10-11T06:01:59.301Z,98598.72
2022-10-11T06:04:27.163Z,98605.28
2022-10-11T06:06:55.207Z,98603.78
2022-10-11T06:09:23.041Z,98605.19
2022-10-11T06:11:50.990Z,98610.22
2022-10-11T06:14:19.362Z,98609.88
2022-10-11T06:16:48.629Z,98610.69
2022-10-11T06:19:16.462Z,98618.00
2022-10-11T06:21:45.153Z,98615.06
2022-10-11T06:24:13.411Z,98617.72
2022-10-11T06:26:41.434Z,98623.19
2022-10-11T06:29:11.553Z,98620.47
2022-10-11T06:31:39.597Z,98630.50
2022-10-11T06:34:09.364Z,98640.16
2022-10-11T06:36:37.499Z,98639.69
2022-10-11T06:39:05.368Z,98644.47
2022-10-11T06:41:33.233Z,98658.53
2022-10-11T06:44:01.139Z,98646.06
2022-10-11T06:46:29.376Z,98651.81
2022-10-11T06:48:57.574Z,98655.19
2022-10-11T06:51:28.781Z,98665.63
2022-10-11T06:53:58.029Z,98662.03
2022-10-11T06:56:27.337Z,98661.81
2022-10-11T06:58:56.163Z,98660.34
2022-10-11T07:01:24.847Z,98654.59
2022-10-11T07:03:54.752Z,98656.41
2022-10-11T07:06:24.285Z,98662.59
2022-10-11T07:08:53.670Z,98663.50
2022-10-11T07:11:23.248Z,98668.56
2022-10-11T07:13:52.680Z,98680.63
2022-10-11T07:16:21.518Z,98684.22
2022-10-11T07:18:58.810Z,98674.91
2022-10-11T07:21:29.297Z,98681.25
2022-10-11T07:23:59.090Z,98694.41
2022-10-11T07:26:26.829Z,98697.16
2022-10-11T07:28:54.686Z,98701.38
2022-10-11T07:31:24.912Z,98703.44
2022-10-11T07:33:53.329Z,98710.47
2022-10-11T07:36:23.267Z,98716.75
2022-10-11T07:38:51.506Z,98718.81
2022-10-11T07:41:20.712Z,98725.94
2022-10-11T07:43:49.811Z,98726.34
2022-10-11T07:46:18.716Z,98722.91
2022-10-11T07:48:46.632Z,98716.53
2022-10-11T07:51:17.124Z,98722.75
2022-10-11T07:53:47.129Z,98719.81
2022-10-11T07:56:17.716Z,98722.28
2022-10-11T07:58:51.349Z,98721.28
2022-10-11T08:01:20.279Z,98728.53
2022-10-11T08:03:48.592Z,98736.31
2022-10-11T08:06:19.104Z,98732.25
2022-10-11T08:08:47.739Z,98732.31
2022-10-11T08:11:22.337Z,98733.47
2022-10-11T08:13:52.334Z,98733.72
2022-10-11T08:16:20.936Z,98733.72
2022-10-11T08:18:48.783Z,98732.56
2022-10-11T08:21:18.785Z,98736.38
2022-10-11T08:23:46.846Z,98738.03
2022-10-11T08:26:14.709Z,98743.19
2022-10-11T08:28:42.821Z,98738.09
2022-10-11T08:31:15.609Z,98722.78
2022-10-11T08:33:44.286Z,98753.13
2022-10-11T08:36:13.359Z,98745.41
2022-10-11T08:38:42.061Z,98750.06
2022-10-11T08:41:38.465Z,98750.28
2022-10-11T08:44:15.372Z,98753.00
2022-10-11T08:46:50.178Z,98754.97
2022-10-11T08:49:20.184Z,98760.91
2022-10-11T08:51:51.861Z,98752.34
2022-10-11T08:54:24.022Z,98755.44
2022-10-11T08:56:52.450Z,98756.81
2022-10-11T08:59:30.085Z,98749.41
2022-10-11T09:02:10.545Z,98754.19
2022-10-11T09:04:38.297Z,98753.25
2022-10-11T09:07:18.051Z,98753.81
2022-10-11T09:09:59.582Z,98756.59
2022-10-11T09:12:41.053Z,98758.34
2022-10-11T09:15:19.641Z,98755.63
2022-10-11T09:18:09.580Z,98758.50
2022-10-11T09:20:48.980Z,98764.16
2022-10-11T09:23:34.285Z,98752.78
2022-10-11T09:26:07.605Z,98753.81
2022-10-11T09:28:50.891Z,98750.41
2022-10-11T09:31:18.978Z,98762.97
2022-10-11T09:33:50.459Z,98755.31
2022-10-11T09:36:26.617Z,98751.44
2022-10-11T09:39:06.690Z,98767.72
2022-10-11T09:41:39.877Z,98776.28
2022-10-11T09:44:08.666Z,98771.94
2022-10-11T09:46:38.358Z,98777.56
2022-10-11T09:49:12.407Z,98769.91
2022-10-11T09:51:42.801Z,98773.28
2022-10-11T09:54:10.817Z,98778.81
2022-10-11T09:56:43.641Z,98774.28
2022-10-11T09:59:26.020Z,98776.38
2022-10-11T10:02:21.337Z,98780.84
2022-10-11T10:05:00.147Z,98773.66
2022-10-11T10:07:30.420Z,98771.38
2022-10-11T10:09:58.545Z,98779.16
2022-10-11T10:12:29.263Z,98782.88
2022-10-11T10:15:08.775Z,98780.34
2022-10-11T10:17:37.158Z,98782.97
2022-10-11T10:20:08.495Z,98776.59
2022-10-11T10:22:36.726Z,98777.00
2022-10-11T10:25:09.276Z,98781.78
2022-10-11T10:27:37.803Z,98786.72
2022-10-11T10:30:14.462Z,98788.94
2022-10-11T10:32:52.378Z,98792.38
2022-10-11T10:35:31.179Z,98787.47
2022-10-11T10:38:09.804Z,98799.28
2022-10-11T10:40:42.183Z,98792.47
2022-10-11T10:43:15.584Z,98787.69
2022-10-11T10:46:02.129Z,98797.41
2022-10-11T10:49:18.814Z,98793.16
2022-10-11T10:51:40.546Z,98792.38
2022-10-11T10:54:16.083Z,98789.09
2022-10-11T10:56:51.109Z,98791.13
2022-10-11T10:59:51.080Z,98798.91
2022-10-11T11:02:39.537Z,98799.19
2022-10-11T11:05:18.716Z,98803.00
2022-10-11T11:07:52.849Z,98799.44
2022-10-11T11:10:23.889Z,98796.72
2022-10-11T11:13:02.566Z,98806.28
2022-10-11T11:15:38.143Z,98802.44
2022-10-11T11:18:25.858Z,98801.66
2022-10-11T11:21:08.862Z,98799.84
2022-10-11T11:23:49.266Z,98788.19
2022-10-11T11:26:24.680Z,98799.81
2022-10-11T11:29:04.897Z,98798.59
2022-10-11T11:31:48.979Z,98800.50
2022-10-11T11:34:22.611Z,98785.50
2022-10-11T11:36:55.733Z,98798.88
2022-10-11T11:39:28.533Z,98785.91
2022-10-11T11:42:00.475Z,98802.06
2022-10-11T11:44:32.714Z,98794.66
2022-10-11T11:47:04.709Z,98795.41
2022-10-11T11:49:35.777Z,98796.00
2022-10-11T11:52:06.683Z,98801.19
2022-10-11T11:54:48.290Z,98802.94
2022-10-11T11:57:28.387Z,98801.94
2022-10-11T12:00:03.105Z,98806.84
2022-10-11T12:02:42.770Z,98805.22
2022-10-11T12:05:12.550Z,98809.66
2022-10-11T12:07:59.600Z,98805.28
2022-10-11T12:10:40.113Z,98804.25
2022-10-11T12:13:17.710Z,98808.41
2022-10-11T12:16:02.560Z,98802.59
2022-10-11T12:18:32.245Z,98803.16
2022-10-11T12:21:06.814Z,98797.03
2022-10-11T12:23:50.717Z,98803.94
2022-10-11T12:26:44.972Z,98809.59
2022-10-11T12:29:42.678Z,98799.19
2022-10-11T12:32:51.822Z,98815.81
2022-10-11T12:36:05.671Z,98817.56
2022-10-11T12:38:37.769Z,98811.75
2022-10-11T12:41:49.296Z,98814.50
2022-10-11T12:44:24.011Z,98815.00
2022-10-11T12:47:16.635Z,98817.22
2022-10-11T12:49:56.875Z,98832.66
2022-10-11T12:52:41.446Z,98840.94
2022-10-11T12:55:43.209Z,98835.25
2022-10-11T12:58:30.720Z,98845.34
2022-10-11T13:01:12.171Z,98831.22
2022-10-11T13:03:43.186Z,98840.34
2022-10-11T13:06:14.974Z,98846.41
2022-10-11T13:08:46.332Z,98850.38
2022-10-11T13:11:20.058Z,98847.06
2022-10-11T13:13:53.098Z,98851.06
2022-10-11T13:16:24.882Z,98854.50
2022-10-11T13:18:57.584Z,98853.09
2022-10-11T13:21:29.812Z,98858.81
2022-10-11T13:24:00.720Z,98855.09
2022-10-11T13:26:31.810Z,98861.59
2022-10-11T13:29:01.104Z,98855.41
2022-10-11T13:31:30.709Z,98856.00
2022-10-11T13:34:00.033Z,98851.78
2022-10-11T13:36:28.774Z,98853.25
2022-10-11T13:38:59.278Z,98846.66
2022-10-11T13:41:28.765Z,98845.50
2022-10-11T13:43:59.156Z,98845.16
2022-10-11T13:46:29.570Z,98855.66
2022-10-11T13:49:00.512Z,98843.78
2022-10-11T13:51:32.519Z,98854.88
2022-10-11T13:54:02.031Z,98854.50
2022-10-11T13:56:33.412Z,98852.31
2022-10-11T13:59:01.648Z,98846.19
2022-10-11T14:01:38.189Z,98853.38
2022-10-11T14:04:10.865Z,98848.09
2022-10-11T14:06:45.445Z,98845.84
2022-10-11T14:09:21.334Z,98852.31
2022-10-11T14:11:50.475Z,98848.03
2022-10-11T14:14:41.780Z,98852.91
2022-10-11T14:17:19.270Z,98852.13
2022-10-11T14:20:11.420Z,98849.94
2022-10-11T14:22:39.863Z,98846.84
2022-10-11T14:25:08.114Z,98855.75
2022-10-11T14:27:37.494Z,98856.78
2022-10-11T14:32:58.678Z,98852.25
2022-10-11T14:35:29.909Z,98847.19
2022-10-11T14:37:58.546Z,98851.31
2022-10-11T14:40:29.535Z,98852.31
2022-10-11T14:42:57.403Z,98861.81
2022-10-11T14:45:26.730Z,98861.09
2022-10-11T14:47:54.735Z,98859.06
2022-10-11T14:50:36.407Z,98856.50
2022-10-11T14:53:05.718Z,98855.41
2022-10-11T14:55:33.952Z,98853.88
2022-10-11T14:58:01.719Z,98856.50
2022-10-11T15:00:31.413Z,98849.69
2022-10-11T15:02:59.742Z,98854.66
2022-10-11T15:05:33.874Z,98861.38
2022-10-11T15:08:02.438Z,98857.91
2022-10-11T15:10:34.496Z,98865.66
2022-10-11T15:13:04.618Z,98874.28
2022-10-11T15:15:35.442Z,98862.50
2022-10-11T15:18:05.622Z,98870.00
2022-10-11T15:20:37.972Z,98869.97
2022-10-11T15:23:07.713Z,98872.50
2022-10-11T15:25:36.421Z,98874.03
2022-10-11T15:28:05.164Z,98886.41
2022-10-11T15:30:38.705Z,98876.50
2022-10-11T15:33:10.162Z,98879.84
2022-10-11T15:35:39.548Z,98886.44
2022-10-11T15:38:07.309Z,98881.19
2022-10-11T15:40:37.455Z,98885.31
2022-10-11T15:43:05.670Z,98885.09
2022-10-11T15:45:33.934Z,98889.88
2022-10-11T15:48:01.988Z,98884.16
2022-10-11T15:50:36.764Z,98892.59
2022-10-11T15:53:09.203Z,98888.03
2022-10-11T15:55:39.548Z,98891.47
2022-10-11T15:58:07.924Z,98892.81
2022-10-11T16:00:35.835Z,98891.88
2022-10-11T16:03:03.669Z,98899.28
2022-10-11T16:05:31.533Z,98894.25
2022-10-11T16:07:59.945Z,98900.75
2022-10-11T16:10:29.160Z,98900.97
2022-10-11T16:12:57.238Z,98901.84
2022-10-11T16:15:25.364Z,98899.38
2022-10-11T16:17:53.539Z,98911.34
2022-10-11T16:20:23.303Z,98912.69
2022-10-11T16:22:51.816Z,98905.53
2022-10-11T16:25:21.431Z,98916.19
2022-10-11T16:27:51.707Z,98927.50
2022-10-11T16:30:20.489Z,98922.56
2022-10-11T16:32:48.534Z,98922.63
2022-10-11T16:35:17.175Z,98924.25
2022-10-11T16:37:45.428Z,98925.56
2022-10-11T16:40:17.420Z,98915.69
2022-10-11T16:42:46.918Z,98920.66
2022-10-11T16:45:17.193Z,98918.50
2022-10-11T16:47:45.202Z,98912.78
2022-10-11T16:50:13.679Z,98920.47
2022-10-11T16:52:41.552Z,98924.72
2022-10-11T16:55:10.168Z,98916.03
2022-10-11T16:57:38.803Z,98923.75
2022-10-11T17:00:08.713Z,98921.69
2022-10-11T17:02:37.863Z,98919.59
2022-10-11T17:05:06.873Z,98912.28
2022-10-11T17:07:34.728Z,98929.56
2022-10-11T17:10:02.805Z,98927.47
2022-10-11T17:12:31.915Z,98930.59
2022-10-11T17:15:00.103Z,98936.53
2022-10-11T17:17:28.043Z,98929.34
2022-10-11T17:19:57.496Z,98926.44
2022-10-11T17:22:25.890Z,98929.16
2022-10-11T17:24:53.904Z,98939.41
2022-10-11T17:27:21.771Z,98929.63
2022-10-11T17:29:50.168Z,98944.41
2022-10-11T17:32:17.930Z,98941.19
2022-10-11T17:34:45.915Z,98941.38
2022-10-11T17:37:15.249Z,98943.31
2022-10-11T17:39:43.014Z,98944.72
2022-10-11T17:42:11.040Z,98946.66
2022-10-11T17:44:38.942Z,98950.03
2022-10-11T17:47:06.663Z,98946.69
2022-10-11T17:49:34.730Z,98951.16
2022-10-11T17:52:02.445Z,98947.78
2022-10-11T17:54:31.828Z,98954.38
2022-10-11T17:56:59.745Z,98954.22
2022-10-11T17:59:28.716Z,98963.66
2022-10-11T18:01:56.626Z,98962.22
2022-10-11T18:04:27.048Z,98962.72
2022-10-11T18:06:55.234Z,98960.16
2022-10-11T18:09:24.577Z,98962.38
2022-10-11T18:11:53.941Z,98962.38
2022-10-11T18:14:21.939Z,98965.28
2022-10-11T18:16:49.874Z,98967.53
2022-10-11T18:19:17.830Z,98964.81
2022-10-11T18:21:45.765Z,98966.09
2022-10-11T18:24:16.235Z,98966.88
2022-10-11T18:26:45.535Z,98964.00
2022-10-11T18:29:15.251Z,98965.75
2022-10-11T18:31:43.400Z,98970.72
2022-10-11T18:34:14.068Z,98971.22
2022-10-11T18:36:41.829Z,98971.69
2022-10-11T18:39:13.229Z,98972.50
2022-10-11T18:41:44.325Z,98976.81
2022-10-11T18:44:14.950Z,98977.00
2022-10-11T18:46:44.708Z,98974.56
2022-10-11T18:49:13.397Z,98983.38
2022-10-11T18:51:42.678Z,98986.72
2022-10-11T18:54:16.666Z,98983.22
2022-10-11T18:56:48.170Z,98996.66
2022-10-11T18:59:16.289Z,98993.44
2022-10-11T19:01:46.174Z,98983.22
2022-10-11T19:04:16.674Z,98986.44
2022-10-11T19:06:47.598Z,98983.72
2022-10-11T19:09:21.453Z,98989.00
2022-10-11T19:11:50.669Z,98987.22
2022-10-11T19:14:20.681Z,98990.28
2022-10-11T19:16:51.754Z,98990.28
2022-10-11T19:19:21.300Z,98989.28
2022-10-11T19:21:49.495Z,98977.09
2022-10-11T19:24:18.410Z,98982.53
2022-10-11T19:26:47.437Z,98975.44
2022-10-11T19:29:18.644Z,98994.69
2022-10-11T19:31:49.089Z,98984.22
2022-10-11T19:34:19.733Z,99001.69
2022-10-11T19:36:50.265Z,98999.09
2022-10-11T19:39:19.474Z,99002.13
2022-10-11T19:41:47.751Z,98984.31
2022-10-11T19:44:16.763Z,98999.75
2022-10-11T19:46:51.647Z,99000.66
2022-10-11T19:49:24.618Z,99004.97
2022-10-11T19:51:53.503Z,98998.44
2022-10-11T19:54:21.758Z,99002.25
2022-10-11T19:56:49.720Z,99002.88
2022-10-11T19:59:18.222Z,99001.91
2022-10-11T20:01:51.298Z,99003.88
2022-10-11T20:04:47.464Z,98998.84
2022-10-11T20:07:11.485Z,99002.25
2022-10-11T20:09:39.665Z,99011.53
2022-10-11T20:12:08.277Z,99002.50
2022-10-11T20:14:36.374Z,99008.09
2022-10-11T20:17:04.297Z,99007.91
2022-10-11T20:19:33.796Z,99009.47
2022-10-11T20:22:02.243Z,99006.63
2022-10-11T20:24:33.482Z,99007.03
2022-10-11T20:27:02.676Z,99000.72
2022-10-11T20:29:30.578Z,99004.56
2022-10-11T20:31:59.293Z,99008.53
2022-10-11T20:34:28.153Z,99009.75
2022-10-11T20:36:57.897Z,99011.03
2022-10-11T20:39:25.901Z,99014.06
2022-10-11T20:41:54.140Z,99015.41
2022-10-11T20:44:21.877Z,99016.91
2022-10-11T20:46:49.952Z,99023.13
2022-10-11T20:49:19.736Z,99020.94
2022-10-11T20:51:47.458Z,99016.91
2022-10-11T20:54:16.844Z,99026.66
2022-10-11T20:56:44.759Z,99014.22
2022-10-11T20:59:12.602Z,99017.31
2022-10-11T21:01:42.292Z,99018.97
2022-10-11T21:04:17.252Z,99017.84
2022-10-11T21:06:45.176Z,99011.94
2022-10-11T21:09:15.608Z,99008.13
2022-10-11T21:11:46.272Z,99009.91
2022-10-11T21:14:14.842Z,99016.31
2022-10-11T21:16:42.947Z,99010.69
2022-10-11T21:19:15.914Z,99011.69
2022-10-11T21:21:46.453Z,99013.91
2022-10-11T21:24:16.538Z,99016.31
2022-10-11T21:26:44.221Z,99019.41
2022-10-11T21:29:13.527Z,99013.28
2022-10-11T21:31:41.596Z,99017.09
2022-10-11T21:34:09.333Z,99016.47
2022-10-11T21:36:37.287Z,99018.69
2022-10-11T21:39:05.577Z,99021.41
2022-10-11T21:41:33.971Z,99015.47
2022-10-11T21:44:02.148Z,99009.06
2022-10-11T21:49:21.030Z,99018.50
2022-10-11T21:51:48.921Z,99019.28
2022-10-11T21:54:17.452Z,99024.72
2022-10-11T21:56:45.597Z,99021.47
2022-10-11T21:59:13.610Z,99019.38
2022-10-11T22:01:43.760Z,99024.28
2022-10-11T22:04:12.480Z,99003.78
2022-10-11T22:06:41.236Z,99018.28
2022-10-11T22:09:09.655Z,99020.47
2022-10-11T22:11:39.118Z,99017.25
2022-10-11T22:14:07.050Z,99016.16
2022-10-11T22:16:35.981Z,99013.22
2022-10-11T22:19:05.458Z,99014.16
2022-10-11T22:21:33.325Z,99009.41
2022-10-11T22:24:01.103Z,99008.78
2022-10-11T22:26:31.617Z,99016.09
2022-10-11T22:29:00.620Z,99012.25
2022-10-11T22:31:29.173Z,99014.47
2022-10-11T22:33:58.234Z,99008.09
2022-10-11T22:36:28.485Z,99017.09
2022-10-11T22:38:56.188Z,99014.69
2022-10-11T22:41:24.677Z,99008.84
2022-10-11T22:43:52.571Z,99017.56
2022-10-11T22:46:20.513Z,99020.06
2022-10-11T22:48:48.605Z,99017.28
2022-10-11T22:51:16.767Z,99018.66
2022-10-11T22:53:46.133Z,99013.38
2022-10-11T22:56:14.250Z,99025.25
2022-10-11T22:58:42.122Z,99022.63
2022-10-11T23:01:10.833Z,99016.16
2022-10-11T23:03:39.298Z,99015.94
2022-10-11T23:06:07.433Z,99022.19
2022-10-11T23:08:35.168Z,99016.75
2022-10-11T23:11:06.383Z,99014.09
2022-10-11T23:13:34.290Z,99020.09
2022-10-11T23:16:06.390Z,99011.09
2022-10-11T23:18:34.208Z,99021.72
2022-10-11T23:21:02.212Z,99017.47
2022-10-11T23:23:29.975Z,99014.22
2022-10-11T23:26:02.560Z,99017.00
2022-10-11T23:28:31.917Z,99015.09
2022-10-11T23:31:00.151Z,99015.91
2022-10-11T23:33:28.582Z,99023.44
2022-10-11T23:35:56.329Z,99014.66
2022-10-11T23:38:24.619Z,99014.94
2022-10-11T23:40:52.297Z,99020.94
2022-10-11T23:43:19.974Z,99015.53
2022-10-11T23:45:49.432Z,99018.50
2022-10-11T23:48:17.174Z,99023.69
2022-10-11T23:50:44.905Z,99019.34
2022-10-11T23:53:14.237Z,99016.94
2022-10-11T23:55:43.172Z,99024.28
2022-10-11T23:58:11.030Z,99013.38
